Time;durP1;ratioP1;P1;durP2;ratioP2;P2;SDS_P1;SDS_P2;PMS_P1;PMS_P2;Temp;Humidity;BMP_temperature;BMP_pressure;BME280_temperature;BME280_humidity;BME280_pressure;Samples;Min_cycle;Max_cycle;Signal;HPM_P1;HPM_P2
2021/09/29 00:02:11;;;;;;;10.43;6.25;;;8.50;99.90;;;;;;5010714;28;20018;-83
2021/09/29 00:04:36;;;;;;;9.90;5.78;;;8.50;99.90;;;;;;5013092;28;20045;-83
2021/09/29 00:07:02;;;;;;;12.30;6.50;;;8.50;99.90;;;;;;5016039;28;20100;-84
2021/09/29 00:09:28;;;;;;;16.75;8.30;;;8.50;99.90;;;;;;5016009;28;20060;-84
2021/09/29 00:11:54;;;;;;;21.02;7.53;;;8.40;99.90;;;;;;5014681;28;20048;-83
2021/09/29 00:14:19;;;;;;;14.32;6.38;;;8.40;99.90;;;;;;5015446;28;20032;-83
2021/09/29 00:16:45;;;;;;;11.45;7.30;;;8.40;99.90;;;;;;5015781;28;20021;-84
2021/09/29 00:19:11;;;;;;;13.05;9.32;;;8.40;99.90;;;;;;5015849;28;20026;-83
2021/09/29 00:21:36;;;;;;;19.23;8.57;;;8.30;99.90;;;;;;5023871;28;20020;-83
2021/09/29 00:24:02;;;;;;;14.40;8.68;;;8.30;99.90;;;;;;5045376;28;20088;-84
2021/09/29 00:26:28;;;;;;;11.85;8.30;;;8.30;99.90;;;;;;5034200;28;20040;-83
2021/09/29 00:28:53;;;;;;;13.93;7.82;;;8.20;99.90;;;;;;5035225;28;20429;-84
2021/09/29 00:31:26;;;;;;;11.65;7.57;;;8.20;99.90;;;;;;5035293;28;20022;-84
2021/09/29 00:33:58;;;;;;;17.20;8.05;;;8.10;99.90;;;;;;5034894;28;20121;-84
2021/09/29 00:36:25;;;;;;;11.60;7.45;;;8.10;99.90;;;;;;5035250;28;20017;-83
2021/09/29 00:38:50;;;;;;;13.18;8.02;;;8.00;99.90;;;;;;5033829;28;20486;-83
2021/09/29 00:41:16;;;;;;;11.23;7.97;;;8.00;99.90;;;;;;5033754;28;20040;-84
2021/09/29 00:43:41;;;;;;;16.13;8.10;;;8.00;99.90;;;;;;5034753;28;20511;-83
2021/09/29 00:46:07;;;;;;;11.85;6.97;;;7.90;99.90;;;;;;5033760;28;20032;-83
2021/09/29 00:48:32;;;;;;;14.25;8.50;;;7.90;99.90;;;;;;5035107;28;20108;-83
2021/09/29 00:50:59;;;;;;;13.23;7.60;;;7.80;99.90;;;;;;5033760;28;20032;-84
2021/09/29 00:53:25;;;;;;;9.93;7.68;;;7.90;99.90;;;;;;5033564;28;20032;-84
2021/09/29 00:55:51;;;;;;;11.75;8.45;;;7.90;99.90;;;;;;5034587;28;20514;-84
2021/09/29 00:58:17;;;;;;;17.20;9.07;;;7.90;99.90;;;;;;5033560;28;20064;-83
2021/09/29 01:00:42;;;;;;;14.05;8.48;;;7.90;99.90;;;;;;5026267;28;20029;-83
2021/09/29 01:03:09;;;;;;;11.65;6.97;;;7.90;99.90;;;;;;5013679;28;20053;-83
2021/09/29 01:05:38;;;;;;;20.48;8.68;;;7.90;99.90;;;;;;5014751;28;20387;-83
2021/09/29 01:08:11;;;;;;;24.85;8.45;;;7.90;99.90;;;;;;5014933;28;20069;-84
2021/09/29 01:10:48;;;;;;;12.40;8.45;;;7.90;99.90;;;;;;5013439;28;20060;-83
2021/09/29 01:13:18;;;;;;;11.60;7.78;;;7.90;99.90;;;;;;5014741;28;20482;-83
2021/09/29 01:15:47;;;;;;;16.35;9.73;;;7.90;99.90;;;;;;5012007;28;20038;-84
2021/09/29 01:18:15;;;;;;;16.38;8.90;;;8.00;99.90;;;;;;5014691;28;20084;-84
2021/09/29 01:20:48;;;;;;;22.00;9.38;;;8.00;99.90;;;;;;5013344;28;20022;-84
2021/09/29 01:23:26;;;;;;;15.77;8.43;;;8.10;99.90;;;;;;5014624;28;20022;-83
2021/09/29 01:25:57;;;;;;;12.73;7.63;;;8.00;99.90;;;;;;5014320;28;20084;-83
2021/09/29 01:28:30;;;;;;;10.02;7.50;;;8.00;99.90;;;;;;5013236;28;20030;-83
2021/09/29 01:31:00;;;;;;;9.55;7.50;;;8.00;99.90;;;;;;5014398;28;20040;-84
2021/09/29 01:33:29;;;;;;;11.55;6.70;;;8.00;99.90;;;;;;5013020;28;20530;-84
2021/09/29 01:35:55;;;;;;;9.48;6.07;;;7.90;99.90;;;;;;5012987;28;20026;-83
2021/09/29 01:38:21;;;;;;;12.25;7.78;;;7.90;99.90;;;;;;5014365;28;20022;-83
2021/09/29 01:40:46;;;;;;;12.98;8.20;;;7.90;99.90;;;;;;5014237;28;20038;-83
2021/09/29 01:43:12;;;;;;;19.20;8.57;;;7.90;99.90;;;;;;5012780;28;20033;-83
2021/09/29 01:45:38;;;;;;;11.13;6.93;;;7.90;99.90;;;;;;5013890;28;20502;-83
2021/09/29 01:48:05;;;;;;;14.00;7.15;;;7.90;99.90;;;;;;5014157;28;20037;-84
2021/09/29 01:50:32;;;;;;;17.13;7.68;;;7.90;99.90;;;;;;5014182;28;20501;-83
2021/09/29 01:52:59;;;;;;;10.38;7.30;;;7.80;99.90;;;;;;5013918;28;20152;-84
2021/09/29 01:55:26;;;;;;;10.70;6.65;;;7.80;99.90;;;;;;5013744;28;20033;-83
2021/09/29 01:57:53;;;;;;;13.95;7.68;;;7.80;99.90;;;;;;5013782;28;20057;-83
2021/09/29 02:00:19;;;;;;;13.65;7.07;;;7.80;99.90;;;;;;5018976;28;20017;-83
2021/09/29 02:02:45;;;;;;;11.65;7.63;;;7.70;99.90;;;;;;5033669;28;20025;-84
2021/09/29 02:05:12;;;;;;;15.65;7.80;;;7.70;99.90;;;;;;5032032;28;20084;-83
2021/09/29 02:07:39;;;;;;;10.98;6.97;;;7.70;99.90;;;;;;5032296;28;20501;-84
2021/09/29 02:10:07;;;;;;;18.25;8.40;;;7.70;99.90;;;;;;5033524;28;20478;-84
2021/09/29 02:12:35;;;;;;;12.85;8.00;;;7.70;99.90;;;;;;5033329;28;20026;-84
2021/09/29 02:15:02;;;;;;;11.95;7.85;;;7.70;99.90;;;;;;5033009;28;20021;-84
2021/09/29 02:17:29;;;;;;;14.60;8.80;;;7.70;99.90;;;;;;5033361;28;20025;-84
2021/09/29 02:19:54;;;;;;;16.20;8.90;;;7.70;99.90;;;;;;5033306;28;20052;-84
2021/09/29 02:22:20;;;;;;;21.63;9.55;;;7.70;99.90;;;;;;5032038;28;20053;-85
2021/09/29 02:24:45;;;;;;;15.27;9.57;;;7.80;99.90;;;;;;5032923;28;20063;-84
2021/09/29 02:27:12;;;;;;;19.45;10.35;;;7.80;99.90;;;;;;5031362;28;20028;-84
2021/09/29 02:29:38;;;;;;;22.33;10.73;;;7.90;99.90;;;;;;5033158;28;20029;-85
2021/09/29 02:32:04;;;;;;;22.40;10.85;;;8.00;99.90;;;;;;5033128;28;20104;-84
2021/09/29 02:34:30;;;;;;;21.17;10.88;;;8.10;99.90;;;;;;5031536;28;20032;-84
2021/09/29 02:36:55;;;;;;;22.25;9.88;;;8.20;99.90;;;;;;5031757;28;20029;-85
2021/09/29 02:39:21;;;;;;;21.33;10.05;;;8.30;99.90;;;;;;5031645;28;20124;-85
2021/09/29 02:41:47;;;;;;;31.27;10.10;;;8.30;99.90;;;;;;5031468;28;20053;-84
2021/09/29 02:44:12;;;;;;;18.42;8.60;;;8.30;99.90;;;;;;5032400;28;20044;-84
2021/09/29 02:46:40;;;;;;;16.95;8.02;;;8.30;99.90;;;;;;5032803;28;20028;-84
2021/09/29 02:49:06;;;;;;;15.90;8.32;;;8.20;99.90;;;;;;5032811;28;20394;-83
2021/09/29 02:51:32;;;;;;;12.23;8.23;;;8.20;99.90;;;;;;5032772;28;20021;-83
2021/09/29 02:53:58;;;;;;;15.30;8.05;;;8.10;99.90;;;;;;5031030;28;20094;-84
2021/09/29 02:56:25;;;;;;;16.63;7.70;;;8.00;99.90;;;;;;5032532;28;20049;-84
2021/09/29 02:58:51;;;;;;;17.17;8.48;;;8.00;99.90;;;;;;5034689;28;20025;-84
2021/09/29 03:01:17;;;;;;;16.63;7.72;;;8.00;99.90;;;;;;5047820;28;20024;-83
2021/09/29 03:03:42;;;;;;;16.65;6.97;;;8.10;99.90;;;;;;5050872;28;20111;-84
2021/09/29 03:06:08;;;;;;;14.50;7.05;;;8.20;99.90;;;;;;5052371;28;20063;-84
2021/09/29 03:08:33;;;;;;;18.35;6.43;;;8.20;99.90;;;;;;5052414;28;20029;-84
2021/09/29 03:10:59;;;;;;;10.48;5.85;;;8.20;99.90;;;;;;5051731;28;20037;-83
2021/09/29 03:13:25;;;;;;;13.15;5.82;;;8.20;99.90;;;;;;5052086;28;20036;-84
2021/09/29 03:15:50;;;;;;;20.40;7.03;;;8.20;99.90;;;;;;5050713;28;20032;-85
2021/09/29 03:18:17;;;;;;;14.02;6.82;;;8.20;99.90;;;;;;5052100;28;20302;-84
2021/09/29 03:20:43;;;;;;;13.95;6.30;;;8.30;99.90;;;;;;5050924;28;20049;-85
2021/09/29 03:23:09;;;;;;;13.52;6.50;;;8.20;99.90;;;;;;5050471;28;20099;-85
2021/09/29 03:25:35;;;;;;;13.98;7.03;;;8.30;99.90;;;;;;5039277;28;20112;-84
2021/09/29 03:28:01;;;;;;;12.85;6.03;;;8.30;99.90;;;;;;5052000;28;20053;-84
2021/09/29 03:30:26;;;;;;;9.55;6.13;;;8.30;99.90;;;;;;5050665;28;20511;-85
2021/09/29 03:32:52;;;;;;;13.50;5.90;;;8.30;99.90;;;;;;5050639;28;20021;-84
2021/09/29 03:35:18;;;;;;;12.88;6.07;;;8.30;99.90;;;;;;5051650;28;20021;-85
2021/09/29 03:37:43;;;;;;;16.73;5.70;;;8.30;99.90;;;;;;5050188;28;20500;-85
2021/09/29 03:40:12;;;;;;;11.77;4.88;;;8.20;99.90;;;;;;5050255;28;20025;-85
2021/09/29 03:42:38;;;;;;;13.77;6.47;;;8.10;99.90;;;;;;5050447;28;20032;-84
2021/09/29 03:45:05;;;;;;;13.55;5.22;;;8.10;99.90;;;;;;5051306;28;20033;-84
2021/09/29 03:47:31;;;;;;;11.13;4.88;;;8.10;99.90;;;;;;5051733;28;20520;-84
2021/09/29 03:49:57;;;;;;;9.57;5.38;;;8.10;99.90;;;;;;5051711;28;20033;-85
2021/09/29 03:52:22;;;;;;;11.30;5.35;;;8.10;99.90;;;;;;5051664;28;20433;-84
2021/09/29 03:54:48;;;;;;;17.42;5.38;;;8.10;99.90;;;;;;5049997;28;20025;-84
2021/09/29 03:57:13;;;;;;;12.30;4.95;;;8.10;99.90;;;;;;5051548;28;20033;-84
2021/09/29 03:59:39;;;;;;;9.93;4.63;;;8.10;99.90;;;;;;5051646;28;20029;-84
2021/09/29 04:02:05;;;;;;;9.27;4.28;;;8.10;99.90;;;;;;5030479;28;20021;-84
2021/09/29 04:04:30;;;;;;;11.68;3.55;;;8.00;99.90;;;;;;5031347;28;20026;-83
2021/09/29 04:06:56;;;;;;;10.68;4.00;;;7.90;99.90;;;;;;5031610;28;20029;-83
2021/09/29 04:09:22;;;;;;;8.50;4.18;;;7.90;99.90;;;;;;5031554;28;20040;-84
2021/09/29 04:11:47;;;;;;;8.40;4.15;;;7.90;99.90;;;;;;5031635;28;20025;-84
2021/09/29 04:14:15;;;;;;;11.00;5.45;;;7.90;99.90;;;;;;5029875;28;20026;-84
2021/09/29 04:16:40;;;;;;;11.95;4.47;;;7.90;99.90;;;;;;5031579;28;20017;-84
2021/09/29 04:19:06;;;;;;;11.98;4.07;;;7.90;99.90;;;;;;5031520;28;20504;-84
2021/09/29 04:21:32;;;;;;;11.02;4.47;;;8.00;99.90;;;;;;5030331;28;20049;-84
2021/09/29 04:23:57;;;;;;;10.02;4.20;;;8.00;99.90;;;;;;5031245;28;20033;-84
2021/09/29 04:26:23;;;;;;;14.60;3.85;;;8.00;99.90;;;;;;5031522;28;20021;-83
2021/09/29 04:28:49;;;;;;;14.40;4.78;;;8.00;99.90;;;;;;5031385;28;20037;-84
2021/09/29 04:31:15;;;;;;;11.57;4.50;;;8.00;99.90;;;;;;5030231;28;20048;-84
2021/09/29 04:33:40;;;;;;;10.93;4.57;;;8.00;99.90;;;;;;5031166;28;20470;-84
2021/09/29 04:36:06;;;;;;;11.80;4.18;;;8.00;99.90;;;;;;5031347;28;20040;-83
2021/09/29 04:38:32;;;;;;;16.42;4.65;;;8.00;99.90;;;;;;5031276;28;20025;-84
2021/09/29 04:40:57;;;;;;;10.23;5.15;;;8.10;99.90;;;;;;5030028;28;20032;-84
2021/09/29 04:43:23;;;;;;;8.85;4.63;;;8.10;99.90;;;;;;5029904;28;20021;-84
2021/09/29 04:45:49;;;;;;;23.98;4.85;;;8.20;99.90;;;;;;5031184;28;20071;-84
2021/09/29 04:48:15;;;;;;;8.93;4.70;;;8.20;99.90;;;;;;5030037;28;20028;-84
2021/09/29 04:50:40;;;;;;;14.70;4.65;;;8.20;99.90;;;;;;5033871;28;20053;-83
2021/09/29 04:53:06;;;;;;;11.57;4.15;;;8.20;99.90;;;;;;5033629;28;20441;-84
2021/09/29 04:55:32;;;;;;;14.52;4.57;;;8.20;99.90;;;;;;5034564;28;20069;-83
2021/09/29 04:58:01;;;;;;;7.40;4.22;;;8.20;99.90;;;;;;5034846;28;20029;-85
2021/09/29 05:00:27;;;;;;;7.13;4.10;;;8.20;99.90;;;;;;5033522;28;20037;-83
2021/09/29 05:02:52;;;;;;;7.35;4.25;;;8.20;99.90;;;;;;5033439;28;20038;-83
2021/09/29 05:05:18;;;;;;;13.88;5.22;;;8.20;99.90;;;;;;5033250;28;20040;-84
2021/09/29 05:07:51;;;;;;;10.82;4.45;;;8.20;99.90;;;;;;5034668;28;20083;-84
2021/09/29 05:10:29;;;;;;;24.07;5.03;;;8.20;99.90;;;;;;5033299;28;20037;-84
2021/09/29 05:12:59;;;;;;;9.75;4.88;;;8.20;99.90;;;;;;5034555;28;20040;-84
2021/09/29 05:15:24;;;;;;;13.52;5.18;;;8.20;99.90;;;;;;5034294;28;20022;-84
2021/09/29 05:17:50;;;;;;;14.30;4.95;;;8.30;99.90;;;;;;5033231;28;20026;-84
2021/09/29 05:20:15;;;;;;;9.65;4.68;;;8.30;99.90;;;;;;5034473;28;20025;-84
2021/09/29 05:22:41;;;;;;;9.38;4.25;;;8.30;99.90;;;;;;5034270;28;20025;-84
2021/09/29 05:25:07;;;;;;;19.98;5.57;;;8.30;99.90;;;;;;5034089;28;20037;-84
2021/09/29 05:27:33;;;;;;;14.52;5.30;;;8.40;99.90;;;;;;5033124;28;20034;-84
2021/09/29 05:29:59;;;;;;;9.98;4.38;;;8.30;99.90;;;;;;5034294;28;20048;-83
2021/09/29 05:32:24;;;;;;;17.55;4.68;;;8.40;99.90;;;;;;5033024;28;20393;-84
2021/09/29 05:34:50;;;;;;;24.65;5.78;;;8.50;99.90;;;;;;5033879;28;20052;-84
2021/09/29 05:37:17;;;;;;;11.55;5.50;;;8.50;99.90;;;;;;5032739;28;20021;-83
2021/09/29 05:39:43;;;;;;;19.23;6.90;;;8.60;99.90;;;;;;5032899;28;20049;-84
2021/09/29 05:42:08;;;;;;;18.15;5.20;;;8.70;99.90;;;;;;5032742;28;20080;-84
2021/09/29 05:44:36;;;;;;;16.10;5.63;;;8.80;99.90;;;;;;5032450;28;20029;-84
2021/09/29 05:47:03;;;;;;;13.95;5.70;;;8.80;99.90;;;;;;5032755;28;20095;-84
2021/09/29 05:49:28;;;;;;;16.85;5.43;;;8.90;99.90;;;;;;5032732;28;20030;-84
2021/09/29 05:51:54;;;;;;;15.43;5.07;;;9.00;99.90;;;;;;5033762;28;20025;-84
2021/09/29 05:54:19;;;;;;;15.75;6.13;;;9.10;99.90;;;;;;5033435;28;20032;-84
2021/09/29 05:56:46;;;;;;;13.40;5.43;;;9.10;99.90;;;;;;5033806;28;20021;-84
2021/09/29 05:59:11;;;;;;;17.40;5.32;;;9.20;99.90;;;;;;5033807;28;20022;-84
2021/09/29 06:01:37;;;;;;;18.95;6.57;;;9.20;99.90;;;;;;5035240;28;20397;-84
2021/09/29 06:04:02;;;;;;;16.20;5.95;;;9.30;99.90;;;;;;5035364;28;20033;-84
2021/09/29 06:06:28;;;;;;;16.02;6.25;;;9.40;99.90;;;;;;5031879;28;20164;-84
2021/09/29 06:08:54;;;;;;;17.25;5.97;;;9.40;99.90;;;;;;5033347;28;20083;-83
2021/09/29 06:11:19;;;;;;;12.57;5.93;;;9.50;99.90;;;;;;5033353;28;20032;-84
2021/09/29 06:13:45;;;;;;;17.05;5.13;;;9.50;99.90;;;;;;5031582;28;20026;-83
2021/09/29 06:16:11;;;;;;;13.30;5.05;;;9.60;99.90;;;;;;5031984;28;20112;-84
2021/09/29 06:18:39;;;;;;;14.98;5.78;;;9.70;99.90;;;;;;5032012;28;20117;-84
2021/09/29 06:21:06;;;;;;;8.60;4.97;;;9.70;99.90;;;;;;5031802;28;20087;-85
2021/09/29 06:23:33;;;;;;;19.67;5.80;;;9.80;99.90;;;;;;5033171;28;20033;-84
2021/09/29 06:25:58;;;;;;;14.32;5.53;;;9.80;99.90;;;;;;5043969;28;20025;-84
2021/09/29 06:28:24;;;;;;;23.08;7.97;;;9.90;99.90;;;;;;5033103;28;20040;-84
2021/09/29 06:30:50;;;;;;;11.68;5.78;;;10.00;99.90;;;;;;5031794;28;20056;-83
2021/09/29 06:33:16;;;;;;;14.02;5.50;;;10.10;99.90;;;;;;5032888;28;20044;-84
2021/09/29 06:35:41;;;;;;;20.42;5.65;;;10.10;99.90;;;;;;5032588;28;20021;-84
2021/09/29 06:38:08;;;;;;;15.95;5.95;;;10.20;99.90;;;;;;5031608;28;20025;-84
2021/09/29 06:40:34;;;;;;;16.70;6.32;;;10.30;99.90;;;;;;5032821;28;20025;-84
2021/09/29 06:43:03;;;;;;;16.63;6.00;;;10.40;99.90;;;;;;5031403;28;20024;-83
2021/09/29 06:45:30;;;;;;;12.77;5.75;;;10.40;99.90;;;;;;5032638;28;20181;-84
2021/09/29 06:47:57;;;;;;;11.00;5.78;;;10.70;99.90;;;;;;5031485;28;20025;-84
2021/09/29 06:50:23;;;;;;;26.17;7.07;;;10.70;99.90;;;;;;5032569;28;20018;-84
2021/09/29 06:52:48;;;;;;;27.70;7.22;;;10.80;99.90;;;;;;5031331;28;20032;-84
2021/09/29 06:55:14;;;;;;;32.95;7.53;;;10.90;99.90;;;;;;5032327;28;20025;-84
2021/09/29 06:57:40;;;;;;;24.27;7.10;;;11.00;99.90;;;;;;5032519;28;20026;-83
2021/09/29 07:00:09;;;;;;;21.15;6.10;;;11.10;99.90;;;;;;5027686;28;20025;-84
2021/09/29 07:02:34;;;;;;;20.27;6.32;;;11.20;99.90;;;;;;5012812;28;20018;-84
2021/09/29 07:05:00;;;;;;;20.08;6.20;;;11.30;99.90;;;;;;5010940;28;20112;-84
2021/09/29 07:07:25;;;;;;;14.05;5.35;;;11.40;99.90;;;;;;5012707;28;20448;-84
2021/09/29 07:09:51;;;;;;;13.48;5.75;;;11.50;99.90;;;;;;5011377;28;20414;-83
2021/09/29 07:12:16;;;;;;;15.63;6.05;;;11.60;99.90;;;;;;5011386;28;20462;-84
2021/09/29 07:14:42;;;;;;;10.52;6.38;;;11.70;99.90;;;;;;5012122;28;20084;-83
2021/09/29 07:17:07;;;;;;;16.25;6.45;;;11.80;99.90;;;;;;5012517;28;20104;-84
2021/09/29 07:19:33;;;;;;;10.90;6.30;;;11.80;99.90;;;;;;5012314;28;20060;-83
2021/09/29 07:21:59;;;;;;;17.25;6.20;;;11.80;99.90;;;;;;5012486;28;20503;-85
2021/09/29 07:24:24;;;;;;;27.55;6.80;;;11.90;99.90;;;;;;5012064;28;20053;-83
2021/09/29 07:26:50;;;;;;;19.65;6.28;;;12.00;99.90;;;;;;5012418;28;20080;-83
2021/09/29 07:29:16;;;;;;;10.07;5.53;;;12.00;99.90;;;;;;5011002;28;20084;-83
2021/09/29 07:31:42;;;;;;;16.75;6.40;;;12.10;99.90;;;;;;5012401;28;20088;-84
2021/09/29 07:34:07;;;;;;;17.45;6.10;;;12.20;99.90;;;;;;5011752;28;20033;-84
2021/09/29 07:36:34;;;;;;;18.85;5.90;;;12.20;99.90;;;;;;5012169;28;20030;-84
2021/09/29 07:39:01;;;;;;;13.02;5.30;;;12.20;99.90;;;;;;5012285;28;20029;-83
2021/09/29 07:41:26;;;;;;;16.75;6.05;;;12.30;99.90;;;;;;5010822;28;20026;-83
2021/09/29 07:43:52;;;;;;;15.88;5.72;;;12.30;99.90;;;;;;5010535;28;20049;-85
2021/09/29 07:46:18;;;;;;;15.05;4.70;;;12.40;99.90;;;;;;5012109;28;20032;-84
2021/09/29 07:48:44;;;;;;;15.65;5.28;;;12.50;99.90;;;;;;5010674;28;20030;-84
2021/09/29 07:51:10;;;;;;;18.00;4.78;;;12.60;99.90;;;;;;5012097;28;20521;-84
2021/09/29 07:53:35;;;;;;;11.70;5.65;;;12.80;99.90;;;;;;5011894;28;20057;-83
2021/09/29 07:56:01;;;;;;;8.25;4.65;;;13.00;99.90;;;;;;5010556;28;20521;-84
2021/09/29 07:58:27;;;;;;;22.60;5.18;;;12.90;99.90;;;;;;5012042;28;20033;-84
2021/09/29 08:00:53;;;;;;;16.77;4.50;;;13.00;99.90;;;;;;5021657;28;20031;-84
2021/09/29 08:03:18;;;;;;;16.30;5.13;;;13.10;99.90;;;;;;5030287;28;20018;-84
2021/09/29 08:05:45;;;;;;;17.50;4.80;;;13.20;99.90;;;;;;5031357;28;20040;-83
2021/09/29 08:08:10;;;;;;;10.98;4.93;;;13.30;99.90;;;;;;5030414;28;20029;-84
2021/09/29 08:10:36;;;;;;;16.35;5.72;;;13.40;99.90;;;;;;5030438;28;20060;-83
2021/09/29 08:13:02;;;;;;;8.65;4.68;;;13.50;99.90;;;;;;5030211;28;20026;-84
2021/09/29 08:15:28;;;;;;;14.35;4.43;;;13.60;99.90;;;;;;5031301;28;20021;-84
2021/09/29 08:17:56;;;;;;;24.73;5.68;;;13.70;99.90;;;;;;5022130;28;20417;-87
2021/09/29 08:20:25;;;;;;;11.63;4.78;;;13.80;99.90;;;;;;5016291;28;20465;-87
2021/09/29 08:22:59;;;;;;;10.02;4.72;;;14.00;99.90;;;;;;5043233;28;20018;-88
2021/09/29 08:25:40;;;;;;;;;;;13.90;99.90;;;;;;5033951;28;20032;-88
2021/09/29 08:33:19;;;;;;;17.13;4.78;;;14.10;99.90;;;;;;5013575;28;20064;-84
2021/09/29 08:36:15;;;;;;;19.88;5.47;;;14.20;99.90;;;;;;5021029;28;20018;-87
2021/09/29 08:38:40;;;;;;;16.65;4.50;;;14.20;99.90;;;;;;5014985;28;20053;-85
2021/09/29 08:44:14;;;;;;;12.10;4.45;;;14.40;99.90;;;;;;5019719;28;20037;-84
2021/09/29 08:46:49;;;;;;;9.23;4.30;;;14.50;99.90;;;;;;5034629;28;20041;-84
2021/09/29 08:49:39;;;;;;;17.92;5.18;;;14.60;99.90;;;;;;5035836;28;20040;-86
2021/09/29 09:16:33;;;;;;;24.40;5.40;;;15.70;99.90;;;;;;5033637;28;20711;-86
2021/09/29 09:19:03;;;;;;;11.07;4.10;;;15.80;99.90;;;;;;5034959;28;20038;-85
2021/09/29 09:21:30;;;;;;;16.10;3.97;;;15.90;99.90;;;;;;5033235;28;20018;-85
2021/09/29 09:23:58;;;;;;;11.13;4.63;;;16.00;99.90;;;;;;5033902;28;20078;-81
2021/09/29 09:26:26;;;;;;;8.60;3.42;;;16.10;99.90;;;;;;5032661;28;20022;-81
2021/09/29 09:29:05;;;;;;;8.77;3.15;;;16.20;99.90;;;;;;5034349;28;20504;-82
2021/09/29 09:31:31;;;;;;;10.30;3.90;;;16.50;99.90;;;;;;5030108;28;20413;-82
2021/09/29 09:34:00;;;;;;;13.10;4.25;;;16.50;99.90;;;;;;5032373;28;20033;-85
2021/09/29 09:36:50;;;;;;;11.80;3.70;;;16.30;99.90;;;;;;5031370;28;20541;-81
2021/09/29 09:39:23;;;;;;;15.05;3.92;;;16.40;99.90;;;;;;5032873;28;20386;-83
2021/09/29 09:41:56;;;;;;;17.33;3.85;;;16.30;99.90;;;;;;5032400;28;20025;-84
2021/09/29 09:44:24;;;;;;;22.55;4.57;;;16.30;99.90;;;;;;5033357;28;20037;-85
2021/09/29 09:47:03;;;;;;;13.82;4.18;;;16.30;99.90;;;;;;5034284;28;20108;-87
2021/09/29 09:49:30;;;;;;;11.90;4.00;;;16.30;99.90;;;;;;5032510;28;20079;-86
2021/09/29 09:51:59;;;;;;;15.63;3.70;;;16.40;99.90;;;;;;5031739;28;20029;-86
2021/09/29 09:54:40;;;;;;;21.20;4.80;;;16.60;99.90;;;;;;5033254;28;20025;-86
2021/09/29 09:57:17;;;;;;;9.35;4.03;;;16.60;99.90;;;;;;5036307;28;20021;-87
2021/09/29 09:59:48;;;;;;;14.23;3.78;;;16.80;99.90;;;;;;5052408;28;20021;-87
2021/09/29 10:02:13;;;;;;;19.50;4.05;;;16.90;99.90;;;;;;5035141;28;20503;-87
2021/09/29 10:04:39;;;;;;;13.38;3.33;;;16.90;99.90;;;;;;5031992;28;20021;-87
2021/09/29 10:07:07;;;;;;;15.02;4.00;;;16.80;99.90;;;;;;5033563;28;20060;-86
2021/09/29 10:09:40;;;;;;;10.23;3.38;;;16.70;99.90;;;;;;5033517;28;20026;-89
2021/09/29 10:12:20;;;;;;;10.32;3.72;;;16.60;99.90;;;;;;5032018;28;20030;-87
2021/09/29 10:15:00;;;;;;;12.93;4.40;;;16.60;99.90;;;;;;5031693;28;20029;-83
2021/09/29 10:23:11;;;;;;;19.27;3.92;;;16.40;99.90;;;;;;5033137;28;20047;-87
2021/09/29 10:26:32;;;;;;;17.83;3.85;;;16.60;99.90;;;;;;5031734;28;20033;-90
2021/09/29 10:29:03;;;;;;;13.82;4.85;;;16.50;99.90;;;;;;5020310;28;20433;-87
2021/09/29 10:34:27;;;;;;;15.95;4.68;;;17.50;99.90;;;;;;5032863;28;20033;-87
2021/09/29 10:47:59;;;;;;;14.70;4.25;;;18.80;99.90;;;;;;5032773;28;20385;-89
2021/09/29 10:53:04;;;;;;;9.43;3.50;;;19.30;99.90;;;;;;5032415;28;20060;-87
2021/09/29 11:31:23;;;;;;;10.73;4.30;;;18.60;99.90;;;;;;5011112;28;20041;-84
2021/09/29 12:14:49;;;;;;;20.77;7.32;;;18.20;99.90;;;;;;5031541;28;20120;-88
2021/09/29 12:17:26;;;;;;;11.20;6.40;;;18.40;99.90;;;;;;5031245;28;20026;-86
2021/09/29 12:19:55;;;;;;;18.48;6.60;;;18.50;99.90;;;;;;5030675;28;20032;-91
2021/09/29 12:22:23;;;;;;;17.00;7.22;;;18.30;99.90;;;;;;5031515;28;20033;-90
2021/09/29 12:30:41;;;;;;;20.45;7.00;;;18.30;99.90;;;;;;5023607;28;20061;-92
2021/09/29 12:33:20;;;;;;;13.07;5.75;;;18.40;99.90;;;;;;5032298;28;20025;-92
2021/09/29 12:35:56;;;;;;;11.40;5.25;;;18.60;99.90;;;;;;5030277;28;20049;-91
2021/09/29 12:38:33;;;;;;;13.90;5.57;;;18.60;99.90;;;;;;5030812;28;20036;-92
2021/09/29 12:40:58;;;;;;;16.67;6.13;;;18.70;99.90;;;;;;5030283;28;20030;-89
2021/09/29 12:43:25;;;;;;;13.43;5.68;;;18.80;99.90;;;;;;5030415;28;20032;-92
2021/09/29 12:45:51;;;;;;;9.80;5.57;;;19.00;99.90;;;;;;5031630;28;20033;-91
2021/09/29 12:48:20;;;;;;;9.40;4.72;;;19.60;99.90;;;;;;5031417;28;20064;-91
2021/09/29 12:55:46;;;;;;;13.93;4.90;;;19.00;99.90;;;;;;5031609;28;20121;-93
2021/09/29 12:58:12;;;;;;;8.00;4.63;;;18.80;99.90;;;;;;5030972;28;20030;-90
2021/09/29 13:00:37;;;;;;;22.70;5.55;;;19.10;99.90;;;;;;5031506;28;20014;-90
2021/09/29 13:03:05;;;;;;;12.70;4.82;;;20.00;99.90;;;;;;5031419;28;20061;-91
2021/09/29 13:05:31;;;;;;;23.45;5.30;;;20.50;99.90;;;;;;5031229;28;20025;-91
2021/09/29 13:07:57;;;;;;;13.82;4.32;;;20.70;99.90;;;;;;5030286;28;20414;-90
2021/09/29 13:10:22;;;;;;;12.13;4.55;;;20.80;99.90;;;;;;5030462;28;20025;-89
2021/09/29 13:12:51;;;;;;;15.15;4.40;;;21.30;99.90;;;;;;5034772;28;20380;-90
2021/09/29 13:15:21;;;;;;;14.73;4.07;;;22.10;99.90;;;;;;5033452;28;20584;-92
2021/09/29 13:17:51;;;;;;;16.52;4.68;;;22.20;99.90;;;;;;5033374;28;20053;-90
2021/09/29 13:20:26;;;;;;;17.33;4.35;;;22.50;99.90;;;;;;5035046;28;20029;-92
2021/09/29 13:23:13;;;;;;;14.27;4.03;;;22.30;99.90;;;;;;5033452;28;20026;-92
2021/09/29 13:36:34;;;;;;;9.32;3.60;;;20.10;99.90;;;;;;5034815;28;20040;-91
2021/09/29 13:39:00;;;;;;;12.13;4.70;;;20.20;99.90;;;;;;5033279;28;20021;-91
2021/09/29 13:41:25;;;;;;;12.15;4.25;;;19.90;99.90;;;;;;5034322;28;20025;-90
2021/09/29 13:43:51;;;;;;;10.95;3.70;;;19.80;99.90;;;;;;5034121;28;20033;-93
2021/09/29 13:46:16;;;;;;;16.30;4.30;;;20.40;99.90;;;;;;5034479;28;20029;-90
2021/09/29 13:48:42;;;;;;;12.05;4.47;;;20.40;99.90;;;;;;5032872;28;20112;-90
2021/09/29 13:51:08;;;;;;;14.95;3.75;;;20.00;99.90;;;;;;5034310;28;20052;-92
2021/09/29 13:53:34;;;;;;;11.60;4.50;;;19.30;99.90;;;;;;5032858;28;20057;-89
2021/09/29 13:56:03;;;;;;;10.10;3.63;;;18.70;99.90;;;;;;5032722;28;20037;-91
2021/09/29 14:03:41;;;;;;;18.77;4.88;;;17.70;99.90;;;;;;5034153;28;20159;-90
2021/09/29 14:30:35;;;;;;;17.77;5.70;;;16.90;99.90;;;;;;5033021;28;20072;-88
2021/09/29 14:33:06;;;;;;;22.50;5.70;;;16.90;99.90;;;;;;5033164;28;20029;-88
2021/09/29 14:35:32;;;;;;;13.38;5.03;;;16.80;99.90;;;;;;5031659;28;20080;-88
2021/09/29 14:37:58;;;;;;;19.58;6.35;;;16.90;99.90;;;;;;5031700;28;20064;-88
2021/09/29 14:40:25;;;;;;;12.05;5.90;;;16.90;99.90;;;;;;5032666;28;20593;-89
2021/09/29 14:43:01;;;;;;;11.70;5.95;;;17.10;99.90;;;;;;5033431;28;20097;-92
2021/09/29 14:45:26;;;;;;;12.18;6.40;;;17.00;99.90;;;;;;5032054;28;20477;-89
2021/09/29 14:47:52;;;;;;;15.27;6.85;;;17.00;99.90;;;;;;5033078;28;20033;-86
2021/09/29 14:50:26;;;;;;;20.23;6.43;;;17.00;99.90;;;;;;5032635;28;20022;-88
2021/09/29 14:52:54;;;;;;;11.80;6.90;;;17.20;99.90;;;;;;5031429;28;20029;-89
2021/09/29 14:55:20;;;;;;;13.68;7.00;;;17.30;99.90;;;;;;5031307;28;20034;-87
2021/09/29 14:57:46;;;;;;;12.40;6.53;;;17.10;99.90;;;;;;5031485;28;20021;-88
2021/09/29 15:00:12;;;;;;;14.98;6.82;;;17.00;99.90;;;;;;5032914;28;20124;-88
2021/09/29 15:02:38;;;;;;;18.75;7.10;;;17.00;99.90;;;;;;5032225;28;20520;-88
2021/09/29 15:05:04;;;;;;;13.38;6.38;;;16.90;99.90;;;;;;5031374;28;20112;-89
2021/09/29 15:07:29;;;;;;;13.70;5.70;;;16.90;99.90;;;;;;5031565;28;20022;-88
2021/09/29 15:09:55;;;;;;;17.15;6.97;;;16.80;99.90;;;;;;5031454;28;20583;-86
2021/09/29 15:12:21;;;;;;;12.10;5.30;;;16.60;99.90;;;;;;5030989;28;20033;-87
2021/09/29 15:15:15;;;;;;;15.10;5.18;;;16.30;99.90;;;;;;5030974;28;20493;-89
2021/09/29 15:20:25;;;;;;;20.38;5.00;;;16.10;99.90;;;;;;5032337;28;19966;-84
2021/09/29 15:49:07;;;;;;;16.08;5.32;;;14.20;99.90;;;;;;5031971;28;20025;-85
2021/09/29 15:51:53;;;;;;;10.70;5.40;;;14.10;99.90;;;;;;5031387;28;20033;-86
2021/09/29 15:54:32;;;;;;;15.75;5.70;;;13.80;99.90;;;;;;5030242;28;20029;-86
2021/09/29 16:02:31;;;;;;;10.45;5.93;;;13.60;99.90;;;;;;5031179;28;20064;-89
2021/09/29 16:08:29;;;;;;;;;;;13.50;99.90;;;;;;5032285;28;20044;-86
2021/09/29 16:11:24;;;;;;;18.55;6.72;;;13.60;99.90;;;;;;5028376;28;19912;-86
2021/09/29 16:16:46;;;;;;;16.20;7.05;;;13.30;99.90;;;;;;5031883;28;20033;-88
2021/09/29 16:33:08;;;;;;;10.55;5.60;;;13.20;99.90;;;;;;5032961;28;19951;-89
2021/09/29 16:39:04;;;;;;;16.50;6.35;;;13.20;99.90;;;;;;5033784;28;20028;-87
2021/09/29 16:41:29;;;;;;;6.78;5.40;;;13.20;99.90;;;;;;5031608;28;20448;-88
2021/09/29 16:43:55;;;;;;;12.48;6.55;;;13.30;99.90;;;;;;5029663;28;20041;-88
2021/09/29 16:46:23;;;;;;;15.77;5.82;;;13.20;99.90;;;;;;5032687;28;20093;-88
2021/09/29 16:48:48;;;;;;;9.88;5.30;;;13.10;99.90;;;;;;5033972;28;20021;-84